createdAt,value
2022-10-19T00:00:01.318Z,8.20
2022-10-19T00:02:29.108Z,8.20
2022-10-19T00:04:56.939Z,8.20
2022-10-19T00:07:24.756Z,8.10
2022-10-19T00:09:52.600Z,8.10
2022-10-19T00:12:20.473Z,8.10
2022-10-19T00:17:28.129Z,8.10
2022-10-19T00:19:56.036Z,8.00
2022-10-19T00:22:24.015Z,8.00
2022-10-19T00:24:51.747Z,8.00
2022-10-19T00:27:19.511Z,8.00
2022-10-19T00:29:47.356Z,8.00
2022-10-19T00:32:15.194Z,7.90
2022-10-19T00:34:44.507Z,7.90
2022-10-19T00:37:12.331Z,7.90
2022-10-19T00:39:40.307Z,7.90
2022-10-19T00:42:11.574Z,7.80
2022-10-19T00:44:59.511Z,7.80
2022-10-19T00:47:27.647Z,7.80
2022-10-19T00:49:58.902Z,7.80
2022-10-19T00:52:28.696Z,7.80
2022-10-19T00:54:58.444Z,7.80
2022-10-19T00:57:29.342Z,7.80
2022-10-19T00:59:57.750Z,7.70
2022-10-19T01:02:25.596Z,7.70
2022-10-19T01:04:54.689Z,7.70
2022-10-19T01:07:25.063Z,7.70
2022-10-19T01:09:53.331Z,7.70
2022-10-19T01:12:37.003Z,7.70
2022-10-19T01:15:17.302Z,7.60
2022-10-19T01:17:55.031Z,7.60
2022-10-19T01:20:49.459Z,7.60
2022-10-19T01:24:01.227Z,7.60
2022-10-19T01:27:00.433Z,7.60
2022-10-19T01:29:44.764Z,7.50
2022-10-19T01:32:20.287Z,7.50
2022-10-19T01:34:52.272Z,7.50
2022-10-19T01:37:28.439Z,7.50
2022-10-19T01:40:00.007Z,7.50
2022-10-19T01:42:30.634Z,7.50
2022-10-19T01:45:05.827Z,7.50
2022-10-19T01:47:37.693Z,7.50
2022-10-19T01:50:11.217Z,7.40
2022-10-19T01:52:41.835Z,7.40
2022-10-19T01:55:12.586Z,7.40
2022-10-19T01:57:44.479Z,7.40
2022-10-19T02:00:15.578Z,7.40
2022-10-19T02:02:48.302Z,7.40
2022-10-19T02:05:18.359Z,7.40
2022-10-19T02:07:50.454Z,7.40
2022-10-19T02:10:19.187Z,7.40
2022-10-19T02:12:47.756Z,7.30
2022-10-19T02:15:19.663Z,7.30
2022-10-19T02:17:51.360Z,7.30
2022-10-19T02:20:19.971Z,7.30
2022-10-19T02:22:47.809Z,7.30
2022-10-19T02:25:15.989Z,7.30
2022-10-19T02:27:44.489Z,7.30
2022-10-19T02:30:14.599Z,7.30
2022-10-19T02:32:42.838Z,7.30
2022-10-19T02:35:14.121Z,7.30
2022-10-19T02:37:42.522Z,7.30
2022-10-19T02:40:11.343Z,7.30
2022-10-19T02:42:42.865Z,7.20
2022-10-19T02:45:15.180Z,7.20
2022-10-19T02:47:48.727Z,7.10
2022-10-19T02:50:20.374Z,7.10
2022-10-19T02:52:48.215Z,7.10
2022-10-19T02:55:16.220Z,7.00
2022-10-19T02:57:44.031Z,7.00
2022-10-19T03:00:15.068Z,7.00
2022-10-19T03:02:44.337Z,7.00
2022-10-19T03:05:12.193Z,7.00
2022-10-19T03:07:42.210Z,7.00
2022-10-19T03:10:10.702Z,7.00
2022-10-19T03:12:38.497Z,7.00
2022-10-19T03:15:07.059Z,7.00
2022-10-19T03:17:35.875Z,6.90
2022-10-19T03:20:04.791Z,6.90
2022-10-19T03:22:32.611Z,6.90
2022-10-19T03:25:01.731Z,6.90
2022-10-19T03:27:29.559Z,6.90
2022-10-19T03:29:57.341Z,6.90
2022-10-19T03:32:25.173Z,6.90
2022-10-19T03:34:52.934Z,6.90
2022-10-19T03:37:20.739Z,6.90
2022-10-19T03:39:48.555Z,6.80
2022-10-19T03:42:17.716Z,6.80
2022-10-19T03:44:45.486Z,6.70
2022-10-19T03:47:13.273Z,6.70
2022-10-19T03:49:41.827Z,6.70
2022-10-19T03:52:10.092Z,6.70
2022-10-19T03:54:38.087Z,6.60
2022-10-19T03:57:05.963Z,6.60
2022-10-19T03:59:35.102Z,6.60
2022-10-19T04:02:02.866Z,6.50
2022-10-19T04:04:30.643Z,6.50
2022-10-19T04:06:58.468Z,6.50
2022-10-19T04:09:26.284Z,6.40
2022-10-19T04:11:54.050Z,6.40
2022-10-19T04:14:32.093Z,6.40
2022-10-19T04:17:02.538Z,6.40
2022-10-19T04:19:30.427Z,6.40
2022-10-19T04:21:58.617Z,6.40
2022-10-19T04:24:26.378Z,6.40
2022-10-19T04:26:55.633Z,6.40
2022-10-19T04:29:28.044Z,6.40
2022-10-19T04:31:57.792Z,6.40
2022-10-19T04:34:27.008Z,6.30
2022-10-19T04:36:55.004Z,6.30
2022-10-19T04:39:22.817Z,6.30
2022-10-19T04:41:50.668Z,6.20
2022-10-19T04:44:18.646Z,6.20
2022-10-19T04:46:46.555Z,6.20
2022-10-19T04:49:16.529Z,6.10
2022-10-19T04:51:48.674Z,6.10
2022-10-19T04:54:16.552Z,6.10
2022-10-19T04:56:44.336Z,6.00
2022-10-19T04:59:12.099Z,6.00
2022-10-19T05:01:44.772Z,6.00
2022-10-19T05:04:15.169Z,6.00
2022-10-19T05:06:43.105Z,5.90
2022-10-19T05:09:12.435Z,5.90
2022-10-19T05:11:40.439Z,5.90
2022-10-19T05:14:08.678Z,5.90
2022-10-19T05:16:36.616Z,5.90
2022-10-19T05:19:04.437Z,5.90
2022-10-19T05:21:32.442Z,5.80
2022-10-19T05:24:00.202Z,5.80
2022-10-19T05:26:30.118Z,5.80
2022-10-19T05:29:01.539Z,5.80
2022-10-19T05:31:31.607Z,5.80
2022-10-19T05:34:00.087Z,5.80
2022-10-19T05:36:29.734Z,5.70
2022-10-19T05:38:58.947Z,5.70
2022-10-19T05:41:27.522Z,5.70
2022-10-19T05:43:58.110Z,5.70
2022-10-19T05:46:27.932Z,5.70
2022-10-19T05:48:56.379Z,5.70
2022-10-19T05:51:25.407Z,5.70
2022-10-19T05:53:54.304Z,5.70
2022-10-19T05:56:24.185Z,5.70
2022-10-19T05:58:52.455Z,5.70
2022-10-19T06:01:21.677Z,5.70
2022-10-19T06:03:53.024Z,5.60
2022-10-19T06:06:21.573Z,5.60
2022-10-19T06:08:50.252Z,5.60
2022-10-19T06:11:20.358Z,5.60
2022-10-19T06:13:50.467Z,5.60
2022-10-19T06:16:20.969Z,5.60
2022-10-19T06:18:48.848Z,5.60
2022-10-19T06:21:18.671Z,5.60
2022-10-19T06:23:46.593Z,5.70
2022-10-19T06:26:16.146Z,5.70
2022-10-19T06:28:45.504Z,5.70
2022-10-19T06:31:14.750Z,5.80
2022-10-19T06:33:48.598Z,5.80
2022-10-19T06:36:19.819Z,5.80
2022-10-19T06:38:48.287Z,5.80
2022-10-19T06:41:16.373Z,5.90
2022-10-19T06:43:44.473Z,5.90
2022-10-19T06:46:17.327Z,5.90
2022-10-19T06:48:50.123Z,5.90
2022-10-19T06:51:17.938Z,6.00
2022-10-19T06:53:45.714Z,6.00
2022-10-19T06:56:13.531Z,6.00
2022-10-19T06:58:41.595Z,6.10
2022-10-19T07:01:11.724Z,6.10
2022-10-19T07:03:39.682Z,6.20
2022-10-19T07:06:11.396Z,6.20
2022-10-19T07:08:41.552Z,6.30
2022-10-19T07:11:11.649Z,6.30
2022-10-19T07:13:39.827Z,6.40
2022-10-19T07:16:15.897Z,6.50
2022-10-19T07:18:47.840Z,6.50
2022-10-19T07:21:17.983Z,6.60
2022-10-19T07:23:47.167Z,6.60
2022-10-19T07:26:17.139Z,6.70
2022-10-19T07:28:47.587Z,6.70
2022-10-19T07:31:20.054Z,6.80
2022-10-19T07:33:48.375Z,6.90
2022-10-19T07:36:17.513Z,6.90
2022-10-19T07:38:45.321Z,7.00
2022-10-19T07:41:14.583Z,7.10
2022-10-19T07:43:43.649Z,7.10
2022-10-19T07:46:14.150Z,7.20
2022-10-19T07:48:42.467Z,7.30
2022-10-19T07:51:11.666Z,7.40
2022-10-19T07:53:40.950Z,7.50
2022-10-19T07:56:11.232Z,7.50
2022-10-19T07:58:39.255Z,7.60
2022-10-19T08:01:10.933Z,7.70
2022-10-19T08:06:27.847Z,7.80
2022-10-19T08:08:57.332Z,7.90
2022-10-19T08:11:27.426Z,8.00
2022-10-19T08:13:58.473Z,8.10
2022-10-19T08:16:28.240Z,8.10
2022-10-19T08:18:59.427Z,8.10
2022-10-19T08:21:27.803Z,8.20
2022-10-19T08:23:57.188Z,8.30
2022-10-19T08:26:25.560Z,8.30
2022-10-19T08:28:53.384Z,8.40
2022-10-19T08:31:23.077Z,8.40
2022-10-19T08:33:51.707Z,8.50
2022-10-19T08:36:21.256Z,8.60
2022-10-19T08:38:49.314Z,8.70
2022-10-19T08:41:25.536Z,8.80
2022-10-19T08:44:10.079Z,8.90
2022-10-19T08:46:45.999Z,8.90
2022-10-19T08:49:18.918Z,9.00
2022-10-19T08:51:51.983Z,9.10
2022-10-19T08:54:20.707Z,9.20
2022-10-19T08:56:58.841Z,9.20
2022-10-19T08:59:37.353Z,9.30
2022-10-19T09:02:15.258Z,9.40
2022-10-19T09:04:46.931Z,9.50
2022-10-19T09:07:25.140Z,9.60
2022-10-19T09:09:57.269Z,9.70
2022-10-19T09:12:46.053Z,9.80
2022-10-19T09:15:17.019Z,9.90
2022-10-19T09:17:44.839Z,9.90
2022-10-19T09:20:19.199Z,10.00
2022-10-19T09:22:52.002Z,10.10
2022-10-19T09:25:22.180Z,10.20
2022-10-19T09:28:03.528Z,10.20
2022-10-19T09:30:32.459Z,10.30
2022-10-19T09:33:01.762Z,10.40
2022-10-19T09:35:33.236Z,10.50
2022-10-19T09:38:01.723Z,10.50
2022-10-19T09:40:31.379Z,10.60
2022-10-19T09:43:08.706Z,10.70
2022-10-19T09:45:44.460Z,10.70
2022-10-19T09:48:19.164Z,10.80
2022-10-19T09:50:54.928Z,10.90
2022-10-19T09:53:24.533Z,11.00
2022-10-19T09:55:59.157Z,11.10
2022-10-19T09:58:32.907Z,11.10
2022-10-19T10:01:02.159Z,11.20
2022-10-19T10:03:31.650Z,11.20
2022-10-19T10:06:03.198Z,11.30
2022-10-19T10:08:34.803Z,11.30
2022-10-19T10:11:09.565Z,11.50
2022-10-19T10:13:41.259Z,11.50
2022-10-19T10:16:11.491Z,11.60
2022-10-19T10:18:49.779Z,11.70
2022-10-19T10:21:25.617Z,11.70
2022-10-19T10:24:02.612Z,11.80
2022-10-19T10:26:30.694Z,11.90
2022-10-19T10:29:01.447Z,12.00
2022-10-19T10:31:30.705Z,12.00
2022-10-19T10:34:12.211Z,12.10
2022-10-19T10:36:54.629Z,12.20
2022-10-19T10:39:24.691Z,12.30
2022-10-19T10:41:52.674Z,12.30
2022-10-19T10:44:24.393Z,12.30
2022-10-19T10:46:55.078Z,12.40
2022-10-19T10:49:26.395Z,12.40
2022-10-19T10:51:57.100Z,12.50
2022-10-19T10:54:26.608Z,12.50
2022-10-19T10:57:07.038Z,12.60
2022-10-19T10:59:43.102Z,12.70
2022-10-19T11:05:04.063Z,12.80
2022-10-19T11:07:34.980Z,12.80
2022-10-19T11:10:09.875Z,12.90
2022-10-19T11:12:40.817Z,12.90
2022-10-19T11:15:20.507Z,13.00
2022-10-19T11:18:04.587Z,13.00
2022-10-19T11:20:34.885Z,13.10
2022-10-19T11:23:12.862Z,13.20
2022-10-19T11:25:54.246Z,13.30
2022-10-19T11:28:38.187Z,13.30
2022-10-19T11:31:17.101Z,13.40
2022-10-19T11:33:55.378Z,13.50
2022-10-19T11:36:38.324Z,13.70
2022-10-19T11:39:22.990Z,13.80
2022-10-19T11:42:05.612Z,14.00
2022-10-19T11:44:46.984Z,14.10
2022-10-19T11:47:31.603Z,14.10
2022-10-19T11:52:49.936Z,14.30
2022-10-19T11:55:29.281Z,14.30
2022-10-19T11:58:06.473Z,14.40
2022-10-19T12:00:43.615Z,14.40
2022-10-19T12:03:35.728Z,14.50
2022-10-19T12:06:10.939Z,14.50
2022-10-19T12:08:55.389Z,14.50
2022-10-19T12:11:30.115Z,14.60
2022-10-19T12:14:04.065Z,14.60
2022-10-19T12:16:39.248Z,14.70
2022-10-19T12:19:16.017Z,14.70
2022-10-19T12:21:44.286Z,14.80
2022-10-19T12:24:15.582Z,14.80
2022-10-19T12:26:45.759Z,14.90
2022-10-19T12:29:16.999Z,14.90
2022-10-19T12:31:47.066Z,15.00
2022-10-19T12:34:29.618Z,15.00
2022-10-19T12:37:01.933Z,15.00
2022-10-19T12:39:34.979Z,15.00
2022-10-19T12:42:10.747Z,15.00
2022-10-19T12:45:04.517Z,15.00
2022-10-19T12:47:33.363Z,15.00
2022-10-19T12:50:02.928Z,15.00
2022-10-19T12:52:40.110Z,15.10
2022-10-19T12:55:34.423Z,15.10
2022-10-19T12:58:05.513Z,15.20
2022-10-19T13:00:35.560Z,15.20
2022-10-19T13:03:07.276Z,15.20
2022-10-19T13:05:37.463Z,15.20
2022-10-19T13:08:10.688Z,15.20
2022-10-19T13:10:41.591Z,15.20
2022-10-19T13:13:53.070Z,15.20
2022-10-19T13:16:55.457Z,15.20
2022-10-19T13:19:23.635Z,15.20
2022-10-19T13:22:27.485Z,15.20
2022-10-19T13:25:27.163Z,15.20
2022-10-19T13:27:57.069Z,15.20
2022-10-19T13:31:06.064Z,15.20
2022-10-19T13:33:50.557Z,15.20
2022-10-19T13:36:19.126Z,15.20
2022-10-19T13:38:49.243Z,15.10
2022-10-19T13:41:21.411Z,15.10
2022-10-19T13:43:58.859Z,15.10
2022-10-19T13:46:45.206Z,15.10
2022-10-19T13:49:33.054Z,15.10
2022-10-19T13:52:16.592Z,15.10
2022-10-19T13:55:05.452Z,15.00
2022-10-19T13:57:54.204Z,15.00
2022-10-19T14:00:24.613Z,15.00
2022-10-19T14:03:20.399Z,15.00
2022-10-19T14:06:14.288Z,14.90
2022-10-19T14:09:04.894Z,14.90
2022-10-19T14:11:37.087Z,14.90
2022-10-19T14:14:14.762Z,14.90
2022-10-19T14:16:59.620Z,14.80
2022-10-19T14:19:34.159Z,14.80
2022-10-19T14:22:18.054Z,14.80
2022-10-19T14:24:45.880Z,14.70
2022-10-19T14:27:20.102Z,14.70
2022-10-19T14:29:49.836Z,14.60
2022-10-19T14:32:19.760Z,14.60
2022-10-19T14:34:50.190Z,14.60
2022-10-19T14:37:20.069Z,14.60
2022-10-19T14:40:03.062Z,14.60
2022-10-19T14:42:39.347Z,14.50
2022-10-19T14:45:14.289Z,14.50
2022-10-19T14:47:53.603Z,14.50
2022-10-19T14:50:26.472Z,14.50
2022-10-19T14:53:01.678Z,14.40
2022-10-19T14:55:34.900Z,14.40
2022-10-19T14:58:03.422Z,14.40
2022-10-19T15:00:33.927Z,14.40
2022-10-19T15:03:05.547Z,14.30
2022-10-19T15:05:37.401Z,14.30
2022-10-19T15:08:11.004Z,14.30
2022-10-19T15:10:43.555Z,14.20
2022-10-19T15:13:23.640Z,14.20
2022-10-19T15:15:53.041Z,14.20
2022-10-19T15:18:43.878Z,14.10
2022-10-19T15:21:18.578Z,14.10
2022-10-19T15:23:47.792Z,14.10
2022-10-19T15:26:20.293Z,14.10
2022-10-19T15:28:49.013Z,14.10
2022-10-19T15:31:19.614Z,14.00
2022-10-19T15:33:51.228Z,14.00
2022-10-19T15:36:22.497Z,14.00
2022-10-19T15:39:11.454Z,14.00
2022-10-19T15:41:47.962Z,14.00
2022-10-19T15:44:32.962Z,13.90
2022-10-19T15:47:23.263Z,13.90
2022-10-19T15:50:02.447Z,13.90
2022-10-19T15:52:34.202Z,13.90
2022-10-19T15:55:02.980Z,13.80
2022-10-19T15:57:33.381Z,13.80
2022-10-19T16:00:03.390Z,13.70
2022-10-19T16:02:31.204Z,13.70
2022-10-19T16:04:59.092Z,13.60
2022-10-19T16:07:29.488Z,13.50
2022-10-19T16:09:59.120Z,13.50
2022-10-19T16:12:27.478Z,13.40
2022-10-19T16:14:55.573Z,13.40
2022-10-19T16:17:23.843Z,13.30
2022-10-19T16:19:52.108Z,13.30
2022-10-19T16:22:19.903Z,13.20
2022-10-19T16:24:47.736Z,13.10
2022-10-19T16:27:17.068Z,13.10
2022-10-19T16:29:45.365Z,13.00
2022-10-19T16:32:13.223Z,13.00
2022-10-19T16:34:41.473Z,12.90
2022-10-19T16:37:09.311Z,12.80
2022-10-19T16:39:37.108Z,12.80
2022-10-19T16:42:05.120Z,12.70
2022-10-19T16:44:34.418Z,12.70
2022-10-19T16:47:02.333Z,12.60
2022-10-19T16:49:30.360Z,12.50
2022-10-19T16:51:58.641Z,12.50
2022-10-19T16:54:27.186Z,12.40
2022-10-19T16:56:55.716Z,12.40
2022-10-19T16:59:23.750Z,12.30
2022-10-19T17:01:53.629Z,12.20
2022-10-19T17:04:21.941Z,12.20
2022-10-19T17:06:49.858Z,12.20
2022-10-19T17:12:06.452Z,12.10
2022-10-19T17:14:34.745Z,12.00
2022-10-19T17:17:04.117Z,12.00
2022-10-19T17:19:31.929Z,12.00
2022-10-19T17:22:01.776Z,11.90
2022-10-19T17:24:29.897Z,11.90
2022-10-19T17:26:57.787Z,11.90
2022-10-19T17:29:25.626Z,11.80
2022-10-19T17:31:53.476Z,11.80
2022-10-19T17:34:22.676Z,11.80
2022-10-19T17:36:50.481Z,11.70
2022-10-19T17:39:21.445Z,11.70
2022-10-19T17:41:52.744Z,11.70
2022-10-19T17:44:22.356Z,11.60
2022-10-19T17:46:50.535Z,11.60
2022-10-19T17:49:18.777Z,11.60
2022-10-19T17:51:47.991Z,11.60
2022-10-19T17:54:16.030Z,11.60
2022-10-19T17:56:45.193Z,11.50
2022-10-19T17:59:13.510Z,11.50
2022-10-19T18:01:41.495Z,11.50
2022-10-19T18:04:09.312Z,11.50
2022-10-19T18:06:38.687Z,11.50
2022-10-19T18:09:10.020Z,11.50
2022-10-19T18:11:40.079Z,11.40
2022-10-19T18:14:09.732Z,11.40
2022-10-19T18:16:39.588Z,11.40
2022-10-19T18:19:08.942Z,11.40
2022-10-19T18:21:39.472Z,11.30
2022-10-19T18:24:14.411Z,11.30
2022-10-19T18:26:43.946Z,11.30
2022-10-19T18:29:13.694Z,11.20
2022-10-19T18:31:41.968Z,11.20
2022-10-19T18:34:14.540Z,11.20
2022-10-19T18:36:42.599Z,11.20
2022-10-19T18:39:13.169Z,11.20
2022-10-19T18:41:41.435Z,11.20
2022-10-19T18:44:12.553Z,11.10
2022-10-19T18:46:40.837Z,11.10
2022-10-19T18:49:09.733Z,11.10
2022-10-19T18:51:37.950Z,11.10
2022-10-19T18:54:06.209Z,11.00
2022-10-19T18:56:36.417Z,11.00
2022-10-19T18:59:04.346Z,11.00
2022-10-19T19:01:32.325Z,11.00
2022-10-19T19:04:06.703Z,11.00
2022-10-19T19:06:36.090Z,10.90
2022-10-19T19:09:06.650Z,10.90
2022-10-19T19:11:38.056Z,10.90
2022-10-19T19:14:08.576Z,10.80
2022-10-19T19:16:37.895Z,10.80
2022-10-19T19:19:06.702Z,10.80
2022-10-19T19:21:35.542Z,10.80
2022-10-19T19:24:06.222Z,10.80
2022-10-19T19:26:38.707Z,10.70
2022-10-19T19:29:06.745Z,10.70
2022-10-19T19:31:34.767Z,10.70
2022-10-19T19:34:05.675Z,10.60
2022-10-19T19:36:33.593Z,10.60
2022-10-19T19:39:01.720Z,10.60
2022-10-19T19:41:31.114Z,10.60
2022-10-19T19:44:00.298Z,10.60
2022-10-19T19:46:28.198Z,10.50
2022-10-19T19:49:00.091Z,10.50
2022-10-19T19:51:28.994Z,10.50
2022-10-19T19:53:57.190Z,10.50
2022-10-19T19:56:25.646Z,10.40
2022-10-19T19:58:56.093Z,10.40
2022-10-19T20:01:26.112Z,10.40
2022-10-19T20:03:54.102Z,10.40
2022-10-19T20:06:25.084Z,10.40
2022-10-19T20:08:54.430Z,10.30
2022-10-19T20:11:22.379Z,10.30
2022-10-19T20:13:50.547Z,10.30
2022-10-19T20:16:22.700Z,10.20
2022-10-19T20:18:59.663Z,10.20
2022-10-19T20:21:27.723Z,10.20
2022-10-19T20:23:55.529Z,10.20
2022-10-19T20:26:24.811Z,10.20
2022-10-19T20:28:53.294Z,10.20
2022-10-19T20:31:21.817Z,10.20
2022-10-19T20:33:49.696Z,10.20
2022-10-19T20:36:20.533Z,10.20
2022-10-19T20:38:51.099Z,10.20
2022-10-19T20:41:20.685Z,10.20
2022-10-19T20:43:48.966Z,10.10
2022-10-19T20:46:18.939Z,10.10
2022-10-19T20:48:47.023Z,10.10
2022-10-19T20:51:16.809Z,10.10
2022-10-19T20:53:47.613Z,10.10
2022-10-19T20:56:17.861Z,10.10
2022-10-19T20:58:46.997Z,10.10
2022-10-19T21:01:17.028Z,10.10
2022-10-19T21:03:48.035Z,10.10
2022-10-19T21:06:16.317Z,10.10
2022-10-19T21:08:45.729Z,10.10
2022-10-19T21:11:15.504Z,10.10
2022-10-19T21:13:44.283Z,10.10
2022-10-19T21:16:13.824Z,10.10
2022-10-19T21:18:42.049Z,10.10
2022-10-19T21:21:14.775Z,10.00
2022-10-19T21:23:43.187Z,10.00
2022-10-19T21:26:12.406Z,10.00
2022-10-19T21:28:41.427Z,10.00
2022-10-19T21:31:10.447Z,10.10
2022-10-19T21:33:38.228Z,10.10
2022-10-19T21:36:07.660Z,10.10
2022-10-19T21:38:35.791Z,10.10
2022-10-19T21:41:05.213Z,10.10
2022-10-19T21:43:35.340Z,10.00
2022-10-19T21:46:03.884Z,10.00
2022-10-19T21:48:32.175Z,10.10
2022-10-19T21:51:00.583Z,10.10
2022-10-19T21:53:28.372Z,10.10
2022-10-19T21:55:56.132Z,10.10
2022-10-19T21:58:23.914Z,10.10
2022-10-19T22:00:53.047Z,10.10
2022-10-19T22:03:20.958Z,10.10
2022-10-19T22:05:52.225Z,10.10
2022-10-19T22:08:20.179Z,10.10
2022-10-19T22:10:48.017Z,10.10
2022-10-19T22:13:15.804Z,10.10
2022-10-19T22:15:43.862Z,10.10
2022-10-19T22:18:13.054Z,10.10
2022-10-19T22:20:41.662Z,10.10
2022-10-19T22:23:09.467Z,10.10
2022-10-19T22:25:37.235Z,10.10
2022-10-19T22:28:05.387Z,10.10
2022-10-19T22:30:33.228Z,10.10
2022-10-19T22:33:01.061Z,10.00
2022-10-19T22:35:30.218Z,10.00
2022-10-19T22:37:58.032Z,10.10
2022-10-19T22:40:25.869Z,10.10
2022-10-19T22:42:54.083Z,10.10
2022-10-19T22:45:21.851Z,10.10
2022-10-19T22:47:49.683Z,10.10
2022-10-19T22:50:17.690Z,10.10
2022-10-19T22:52:46.827Z,10.10
2022-10-19T22:55:14.655Z,10.10
2022-10-19T22:57:42.439Z,10.10
2022-10-19T23:00:11.582Z,10.10
2022-10-19T23:02:39.416Z,10.10
2022-10-19T23:05:07.811Z,10.10
2022-10-19T23:07:37.517Z,10.10
2022-10-19T23:10:08.053Z,10.10
2022-10-19T23:12:35.930Z,10.10
2022-10-19T23:15:03.840Z,10.10
2022-10-19T23:17:31.666Z,10.00
2022-10-19T23:19:59.494Z,10.10
2022-10-19T23:22:27.289Z,10.10
2022-10-19T23:24:55.134Z,10.10
2022-10-19T23:27:24.346Z,10.10
2022-10-19T23:29:52.143Z,10.10
2022-10-19T23:32:19.899Z,10.10
2022-10-19T23:34:48.487Z,10.10
2022-10-19T23:37:16.510Z,10.10
2022-10-19T23:39:44.315Z,10.10
2022-10-19T23:42:12.100Z,10.10
2022-10-19T23:44:41.262Z,10.10
2022-10-19T23:47:09.043Z,10.10
2022-10-19T23:49:36.841Z,10.10
2022-10-19T23:52:04.837Z,10.10
2022-10-19T23:54:32.618Z,10.10
2022-10-19T23:57:00.658Z,10.10
2022-10-19T23:59:28.471Z,10.10
